createdAt,value
2023-05-08T00:01:33.146Z,16.77
2023-05-08T00:04:00.672Z,16.78
2023-05-08T00:06:28.198Z,16.80
2023-05-08T00:08:56.082Z,16.78
2023-05-08T00:11:23.592Z,16.74
2023-05-08T00:13:50.934Z,16.72
2023-05-08T00:16:18.319Z,16.71
2023-05-08T00:18:46.817Z,16.74
2023-05-08T00:21:14.185Z,16.75
2023-05-08T00:23:41.564Z,16.72
2023-05-08T00:26:08.958Z,16.68
2023-05-08T00:28:36.291Z,16.68
2023-05-08T00:31:03.695Z,16.72
2023-05-08T00:33:31.138Z,16.69
2023-05-08T00:36:05.790Z,16.70
2023-05-08T00:38:34.522Z,16.67
2023-05-08T00:41:02.688Z,16.64
2023-05-08T00:43:30.391Z,16.62
2023-05-08T00:46:01.052Z,16.60
2023-05-08T00:48:31.942Z,16.59
2023-05-08T00:51:00.871Z,16.57
2023-05-08T00:53:29.974Z,16.55
2023-05-08T00:55:57.724Z,16.58
2023-05-08T00:58:27.993Z,16.52
2023-05-08T01:00:57.063Z,16.51
2023-05-08T01:03:25.597Z,16.52
2023-05-08T01:05:53.128Z,16.41
2023-05-08T01:08:20.572Z,16.39
2023-05-08T01:11:11.940Z,16.42
2023-05-08T01:14:00.461Z,16.43
2023-05-08T01:16:56.669Z,16.41
2023-05-08T01:19:54.703Z,16.36
2023-05-08T01:22:33.919Z,16.42
2023-05-08T01:25:11.265Z,16.39
2023-05-08T01:27:50.665Z,16.34
2023-05-08T01:30:46.679Z,16.33
2023-05-08T01:33:44.917Z,16.30
2023-05-08T01:36:50.366Z,16.29
2023-05-08T01:39:22.657Z,16.26
2023-05-08T01:41:58.861Z,16.24
2023-05-08T01:44:33.998Z,16.23
2023-05-08T01:47:06.957Z,16.21
2023-05-08T01:49:50.641Z,16.21
2023-05-08T01:52:28.517Z,16.22
2023-05-08T01:55:10.132Z,16.21
2023-05-08T01:57:51.092Z,16.21
2023-05-08T02:00:21.955Z,16.20
2023-05-08T02:02:51.250Z,16.22
2023-05-08T02:05:21.270Z,16.21
2023-05-08T02:07:51.153Z,16.20
2023-05-08T02:10:20.248Z,16.22
2023-05-08T02:12:48.592Z,16.24
2023-05-08T02:15:17.732Z,16.19
2023-05-08T02:17:49.578Z,16.20
2023-05-08T02:20:18.708Z,16.20
2023-05-08T02:22:49.468Z,16.22
2023-05-08T02:25:17.965Z,16.22
2023-05-08T02:27:47.515Z,16.21
2023-05-08T02:30:16.733Z,16.24
2023-05-08T02:32:49.213Z,16.26
2023-05-08T02:35:19.306Z,16.27
2023-05-08T02:37:52.392Z,16.27
2023-05-08T02:40:22.623Z,16.27
2023-05-08T02:42:50.480Z,16.27
2023-05-08T02:45:18.016Z,16.26
2023-05-08T02:48:01.258Z,16.28
2023-05-08T02:50:38.608Z,16.27
2023-05-08T02:53:11.504Z,16.28
2023-05-08T02:55:52.979Z,16.28
2023-05-08T02:58:31.827Z,16.31
2023-05-08T03:01:32.770Z,16.32
2023-05-08T03:04:07.959Z,16.34
2023-05-08T03:06:41.614Z,16.31
2023-05-08T03:09:17.350Z,16.29
2023-05-08T03:11:48.719Z,16.27
2023-05-08T03:14:21.698Z,16.26
2023-05-08T03:16:52.980Z,16.28
2023-05-08T03:19:34.427Z,16.25
2023-05-08T03:22:05.112Z,16.23
2023-05-08T03:24:36.667Z,16.22
2023-05-08T03:27:04.693Z,16.22
2023-05-08T03:29:34.389Z,16.21
2023-05-08T03:32:02.992Z,16.23
2023-05-08T03:34:31.496Z,16.23
2023-05-08T03:36:58.945Z,16.24
2023-05-08T03:39:27.041Z,16.22
2023-05-08T03:41:56.858Z,16.23
2023-05-08T03:44:25.480Z,16.24
2023-05-08T03:46:55.869Z,16.22
2023-05-08T03:49:25.638Z,16.20
2023-05-08T03:51:55.669Z,16.17
2023-05-08T03:54:25.545Z,16.11
2023-05-08T03:56:54.798Z,16.08
2023-05-08T03:59:37.837Z,16.04
2023-05-08T04:02:13.115Z,16.03
2023-05-08T04:04:42.363Z,16.01
2023-05-08T04:07:35.420Z,16.00
2023-05-08T04:10:09.105Z,16.00
2023-05-08T04:12:57.404Z,16.00
2023-05-08T04:15:31.548Z,15.92
2023-05-08T04:18:22.506Z,15.89
2023-05-08T04:20:50.870Z,15.88
2023-05-08T04:23:22.033Z,15.87
2023-05-08T04:25:52.422Z,15.87
2023-05-08T04:28:20.841Z,15.87
2023-05-08T04:30:48.789Z,15.85
2023-05-08T04:33:18.714Z,15.83
2023-05-08T04:35:46.438Z,15.84
2023-05-08T04:38:13.763Z,15.80
2023-05-08T04:40:41.193Z,15.80
2023-05-08T04:43:08.535Z,15.80
2023-05-08T04:45:36.221Z,15.77
2023-05-08T04:48:03.703Z,15.81
2023-05-08T04:50:31.015Z,15.82
2023-05-08T04:52:58.437Z,15.80
2023-05-08T04:55:25.754Z,15.79
2023-05-08T04:57:53.083Z,15.82
2023-05-08T05:00:20.792Z,15.80
2023-05-08T05:02:48.161Z,15.77
2023-05-08T05:05:15.874Z,15.78
2023-05-08T05:07:43.358Z,15.77
2023-05-08T05:10:11.021Z,15.75
2023-05-08T05:12:39.002Z,15.79
2023-05-08T05:15:07.001Z,15.75
2023-05-08T05:17:35.340Z,15.74
2023-05-08T05:20:03.214Z,15.78
2023-05-08T05:22:33.136Z,15.77
2023-05-08T05:25:00.802Z,15.73
2023-05-08T05:27:28.108Z,15.76
2023-05-08T05:29:55.400Z,15.77
2023-05-08T05:32:22.864Z,15.74
2023-05-08T05:34:51.012Z,15.73
2023-05-08T05:37:18.440Z,15.75
2023-05-08T05:39:45.869Z,15.74
2023-05-08T05:42:13.268Z,15.76
2023-05-08T05:44:40.621Z,15.75
2023-05-08T05:47:10.692Z,16.93
2023-05-08T05:49:39.782Z,17.57
2023-05-08T05:52:07.218Z,18.01
2023-05-08T05:54:34.671Z,18.32
2023-05-08T05:57:02.286Z,18.54
2023-05-08T05:59:29.645Z,18.73
2023-05-08T06:01:57.059Z,18.83
2023-05-08T06:04:24.811Z,18.95
2023-05-08T06:06:52.170Z,19.05
2023-05-08T06:09:19.581Z,19.17
2023-05-08T06:11:47.388Z,19.21
2023-05-08T06:14:14.709Z,19.23
2023-05-08T06:16:42.014Z,19.30
2023-05-08T06:19:09.355Z,19.33
2023-05-08T06:21:36.758Z,19.34
2023-05-08T06:24:04.234Z,19.38
2023-05-08T06:26:31.583Z,19.41
2023-05-08T06:28:58.906Z,19.47
2023-05-08T06:31:26.444Z,19.47
2023-05-08T06:33:53.927Z,19.54
2023-05-08T06:36:21.230Z,19.54
2023-05-08T06:38:48.764Z,19.55
2023-05-08T06:41:16.112Z,19.57
2023-05-08T06:43:43.511Z,19.61
2023-05-08T06:46:11.126Z,19.66
2023-05-08T06:48:38.550Z,19.64
2023-05-08T06:51:05.979Z,19.66
2023-05-08T06:53:33.272Z,19.68
2023-05-08T06:56:00.661Z,19.69
2023-05-08T06:58:28.103Z,19.71
2023-05-08T07:00:55.436Z,19.71
2023-05-08T07:03:22.759Z,19.69
2023-05-08T07:05:50.117Z,19.70
2023-05-08T07:08:17.432Z,19.71
2023-05-08T07:10:44.825Z,19.67
2023-05-08T07:13:12.286Z,19.73
2023-05-08T07:15:39.636Z,19.72
2023-05-08T07:18:07.106Z,19.75
2023-05-08T07:20:34.914Z,19.67
2023-05-08T07:23:02.403Z,19.69
2023-05-08T07:25:29.731Z,19.72
2023-05-08T07:27:58.640Z,19.74
2023-05-08T07:30:27.157Z,19.76
2023-05-08T07:32:54.630Z,19.80
2023-05-08T07:35:22.053Z,19.80
2023-05-08T07:37:49.988Z,19.77
2023-05-08T07:40:17.385Z,19.77
2023-05-08T07:42:45.532Z,19.80
2023-05-08T07:45:14.142Z,19.79
2023-05-08T07:47:58.027Z,19.80
2023-05-08T07:50:26.614Z,19.79
2023-05-08T07:52:54.150Z,19.82
2023-05-08T07:55:21.681Z,19.82
2023-05-08T07:57:49.052Z,19.85
2023-05-08T08:00:16.874Z,19.84
2023-05-08T08:02:45.520Z,19.83
2023-05-08T08:05:13.242Z,19.84
2023-05-08T08:07:41.106Z,19.84
2023-05-08T08:10:09.134Z,19.84
2023-05-08T08:12:36.611Z,19.86
2023-05-08T08:15:04.424Z,19.86
2023-05-08T08:17:31.920Z,19.85
2023-05-08T08:19:59.346Z,19.87
2023-05-08T08:22:27.075Z,19.89
2023-05-08T08:24:56.666Z,19.87
2023-05-08T08:27:24.376Z,19.90
2023-05-08T08:29:56.364Z,19.89
2023-05-08T08:32:32.256Z,19.89
2023-05-08T08:34:59.578Z,19.89
2023-05-08T08:37:27.117Z,19.91
2023-05-08T08:39:54.695Z,19.88
2023-05-08T08:42:23.485Z,19.90
2023-05-08T08:44:51.314Z,19.93
2023-05-08T08:47:22.770Z,19.92
2023-05-08T08:49:53.081Z,19.83
2023-05-08T08:52:41.385Z,19.87
2023-05-08T08:55:15.308Z,19.92
2023-05-08T08:57:55.293Z,19.92
2023-05-08T09:00:28.467Z,19.92
2023-05-08T09:02:56.055Z,19.92
2023-05-08T09:05:25.008Z,19.93
2023-05-08T09:07:55.556Z,19.93
2023-05-08T09:10:24.226Z,19.91
2023-05-08T09:12:51.907Z,19.85
2023-05-08T09:15:19.650Z,19.86
2023-05-08T09:17:47.413Z,19.87
2023-05-08T09:20:16.288Z,19.88
2023-05-08T09:22:44.459Z,19.90
2023-05-08T09:25:12.146Z,19.93
2023-05-08T09:27:39.818Z,19.98
2023-05-08T09:30:12.403Z,19.95
2023-05-08T09:32:42.631Z,19.98
2023-05-08T09:35:11.804Z,20.01
2023-05-08T09:37:42.030Z,20.01
2023-05-08T09:40:22.391Z,20.04
2023-05-08T09:42:51.152Z,20.00
2023-05-08T09:45:28.148Z,20.02
2023-05-08T09:47:55.717Z,20.05
2023-05-08T09:50:23.128Z,20.09
2023-05-08T09:52:50.903Z,20.08
2023-05-08T09:55:18.452Z,20.05
2023-05-08T09:57:59.954Z,20.10
2023-05-08T10:00:28.923Z,20.07
2023-05-08T10:02:57.817Z,20.06
2023-05-08T10:05:35.912Z,20.06
2023-05-08T10:08:23.713Z,20.09
2023-05-08T10:10:51.521Z,20.08
2023-05-08T10:13:18.922Z,20.13
2023-05-08T10:15:52.313Z,20.13
2023-05-08T10:18:24.360Z,20.05
2023-05-08T10:20:54.805Z,20.08
2023-05-08T10:23:23.287Z,20.12
2023-05-08T10:26:01.496Z,20.17
2023-05-08T10:28:28.867Z,20.54
2023-05-08T10:30:59.791Z,20.31
2023-05-08T10:33:34.057Z,20.25
2023-05-08T10:36:01.809Z,20.24
2023-05-08T10:38:30.650Z,20.20
2023-05-08T10:41:01.414Z,20.38
2023-05-08T10:43:31.137Z,20.28
2023-05-08T10:46:03.263Z,20.24
2023-05-08T10:48:48.048Z,20.21
2023-05-08T10:51:41.387Z,20.22
2023-05-08T10:54:21.810Z,20.22
2023-05-08T10:56:49.656Z,20.20
2023-05-08T10:59:21.218Z,20.23
2023-05-08T11:01:49.708Z,20.22
2023-05-08T11:04:22.514Z,20.26
2023-05-08T11:06:53.250Z,20.23
2023-05-08T11:09:28.820Z,20.23
2023-05-08T11:12:03.441Z,20.29
2023-05-08T11:14:31.737Z,20.26
2023-05-08T11:17:02.092Z,20.26
2023-05-08T11:19:29.812Z,20.26
2023-05-08T11:22:14.609Z,20.26
2023-05-08T11:24:51.078Z,20.30
2023-05-08T11:27:18.778Z,20.28
2023-05-08T11:30:06.071Z,20.27
2023-05-08T11:32:59.424Z,20.25
2023-05-08T11:35:46.266Z,20.25
2023-05-08T11:38:36.247Z,20.26
2023-05-08T11:41:24.110Z,20.29
2023-05-08T11:44:00.535Z,20.27
2023-05-08T11:46:40.849Z,20.30
2023-05-08T11:49:21.487Z,20.29
2023-05-08T11:51:58.117Z,20.30
2023-05-08T11:54:29.290Z,20.30
2023-05-08T11:56:57.515Z,20.31
2023-05-08T11:59:24.904Z,20.33
2023-05-08T12:04:22.840Z,20.39
2023-05-08T12:06:51.636Z,20.36
2023-05-08T12:09:20.793Z,20.45
2023-05-08T12:11:56.127Z,20.38
2023-05-08T12:14:24.325Z,20.40
2023-05-08T12:16:51.942Z,20.40
2023-05-08T12:19:19.310Z,20.56
2023-05-08T12:21:48.909Z,20.43
2023-05-08T12:24:23.683Z,20.43
2023-05-08T12:26:55.542Z,20.44
2023-05-08T12:29:23.370Z,20.39
2023-05-08T12:31:51.186Z,20.39
2023-05-08T12:34:18.750Z,20.37
2023-05-08T12:36:46.114Z,20.42
2023-05-08T12:39:18.109Z,20.40
2023-05-08T12:41:52.819Z,20.36
2023-05-08T12:44:22.125Z,20.37
2023-05-08T12:46:54.325Z,20.43
2023-05-08T12:49:25.595Z,20.48
2023-05-08T12:52:00.040Z,20.42
2023-05-08T12:54:33.982Z,20.42
2023-05-08T12:57:01.334Z,20.45
2023-05-08T12:59:34.779Z,20.49
2023-05-08T13:02:02.307Z,20.47
2023-05-08T13:04:30.738Z,20.50
2023-05-08T13:06:58.435Z,20.52
2023-05-08T13:09:25.792Z,20.51
2023-05-08T13:11:53.211Z,20.46
2023-05-08T13:14:20.565Z,20.47
2023-05-08T13:16:48.529Z,20.46
2023-05-08T13:19:16.131Z,20.50
2023-05-08T13:21:47.864Z,20.52
2023-05-08T13:24:16.028Z,20.57
2023-05-08T13:26:44.337Z,20.56
2023-05-08T13:29:11.631Z,20.57
2023-05-08T13:31:39.081Z,20.56
2023-05-08T13:34:06.400Z,20.59
2023-05-08T13:36:33.755Z,20.58
2023-05-08T13:39:01.209Z,20.57
2023-05-08T13:41:28.818Z,20.59
2023-05-08T13:43:56.279Z,20.56
2023-05-08T13:46:24.980Z,20.55
2023-05-08T13:48:52.333Z,20.57
2023-05-08T13:51:19.668Z,20.56
2023-05-08T13:53:47.011Z,20.57
2023-05-08T13:56:14.446Z,20.60
2023-05-08T13:58:41.780Z,20.58
2023-05-08T14:01:25.085Z,20.62
2023-05-08T14:03:54.205Z,20.65
2023-05-08T14:06:21.687Z,20.72
2023-05-08T14:11:36.453Z,20.77
2023-05-08T14:12:42.934Z,20.94
2023-05-08T14:14:03.981Z,20.73
2023-05-08T14:16:31.400Z,20.74
2023-05-08T14:18:58.769Z,20.87
2023-05-08T14:21:26.199Z,20.91
2023-05-08T14:23:53.925Z,20.78
2023-05-08T14:26:21.527Z,20.77
2023-05-08T14:28:49.160Z,20.77
2023-05-08T14:31:16.615Z,20.75
2023-05-08T14:33:43.995Z,20.92
2023-05-08T14:36:11.633Z,20.81
2023-05-08T14:38:38.952Z,21.04
2023-05-08T14:41:06.338Z,20.87
2023-05-08T14:43:33.738Z,21.52
2023-05-08T14:46:01.282Z,21.29
2023-05-08T14:48:28.615Z,21.10
2023-05-08T14:50:57.276Z,21.02
2023-05-08T14:53:24.855Z,20.93
2023-05-08T14:55:52.567Z,24.53
2023-05-08T14:58:20.030Z,24.18
2023-05-08T15:00:47.610Z,24.29
2023-05-08T15:03:15.031Z,24.26
2023-05-08T15:05:42.425Z,24.12
2023-05-08T15:08:10.280Z,24.07
2023-05-08T15:10:38.867Z,23.95
2023-05-08T15:13:06.285Z,23.89
2023-05-08T15:15:33.806Z,24.00
2023-05-08T15:18:01.307Z,23.91
2023-05-08T15:20:28.714Z,23.91
2023-05-08T15:22:56.082Z,23.37
2023-05-08T15:25:23.561Z,23.93
2023-05-08T15:27:52.853Z,23.76
2023-05-08T15:30:21.538Z,23.73
2023-05-08T15:32:49.307Z,23.76
2023-05-08T15:35:16.898Z,23.80
2023-05-08T15:37:44.276Z,23.73
2023-05-08T15:40:12.109Z,23.52
2023-05-08T15:42:39.619Z,23.37
2023-05-08T15:45:07.386Z,23.48
2023-05-08T15:47:34.815Z,23.30
2023-05-08T15:50:04.812Z,23.48
2023-05-08T15:52:32.105Z,23.23
2023-05-08T15:54:59.534Z,23.05
2023-05-08T15:57:27.133Z,23.42
2023-05-08T15:59:54.477Z,23.38
2023-05-08T16:02:21.897Z,22.96
2023-05-08T16:04:49.277Z,22.71
2023-05-08T16:07:16.640Z,22.93
2023-05-08T16:09:44.015Z,22.81
2023-05-08T16:12:11.414Z,22.93
2023-05-08T16:14:39.443Z,23.05
2023-05-08T16:17:10.243Z,22.89
2023-05-08T16:19:38.812Z,22.90
2023-05-08T16:22:06.948Z,22.49
2023-05-08T16:24:34.425Z,22.61
2023-05-08T16:27:01.834Z,22.60
2023-05-08T16:29:29.238Z,22.51
2023-05-08T16:31:56.848Z,22.52
2023-05-08T16:34:24.283Z,22.46
2023-05-08T16:36:51.585Z,22.26
2023-05-08T16:39:19.200Z,22.06
2023-05-08T16:41:46.578Z,21.96
2023-05-08T16:44:15.075Z,22.17
2023-05-08T16:46:42.469Z,22.26
2023-05-08T16:49:09.844Z,21.98
2023-05-08T16:51:37.230Z,22.23
2023-05-08T16:54:04.732Z,22.12
2023-05-08T16:56:32.036Z,22.25
2023-05-08T16:59:01.399Z,21.99
2023-05-08T17:01:28.749Z,22.05
2023-05-08T17:03:56.089Z,22.15
2023-05-08T17:06:23.414Z,22.17
2023-05-08T17:08:52.929Z,22.15
2023-05-08T17:11:23.492Z,22.17
2023-05-08T17:13:50.854Z,21.96
2023-05-08T17:16:20.394Z,21.93
2023-05-08T17:18:48.465Z,21.90
2023-05-08T17:21:15.981Z,21.97
2023-05-08T17:23:43.471Z,21.87
2023-05-08T17:26:11.336Z,21.83
2023-05-08T17:28:38.727Z,21.70
2023-05-08T17:31:06.058Z,21.64
2023-05-08T17:33:33.651Z,21.66
2023-05-08T17:36:02.327Z,21.40
2023-05-08T17:38:29.649Z,21.52
2023-05-08T17:40:57.141Z,21.49
2023-05-08T17:43:24.492Z,21.45
2023-05-08T17:45:51.990Z,21.39
2023-05-08T17:48:19.384Z,21.32
2023-05-08T17:50:46.954Z,21.38
2023-05-08T17:53:14.409Z,21.29
2023-05-08T17:55:41.715Z,21.23
2023-05-08T17:58:09.066Z,21.31
2023-05-08T18:00:37.655Z,21.37
2023-05-08T18:03:05.674Z,21.35
2023-05-08T18:05:33.064Z,21.35
2023-05-08T18:08:00.468Z,21.27
2023-05-08T18:10:27.802Z,21.18
2023-05-08T18:12:55.102Z,21.21
2023-05-08T18:15:22.636Z,21.16
2023-05-08T18:17:49.997Z,21.09
2023-05-08T18:20:17.430Z,20.98
2023-05-08T18:22:45.070Z,20.97
2023-05-08T18:25:12.684Z,20.92
2023-05-08T18:27:43.178Z,20.90
2023-05-08T18:30:10.972Z,20.81
2023-05-08T18:32:38.312Z,20.78
2023-05-08T18:35:06.066Z,20.66
2023-05-08T18:37:33.384Z,20.56
2023-05-08T18:40:00.714Z,20.55
2023-05-08T18:42:28.083Z,20.52
2023-05-08T18:44:56.426Z,20.47
2023-05-08T18:47:23.801Z,20.38
2023-05-08T18:49:57.008Z,20.36
2023-05-08T18:52:24.370Z,20.29
2023-05-08T18:54:51.680Z,20.27
2023-05-08T18:57:19.031Z,20.19
2023-05-08T18:59:46.431Z,20.13
2023-05-08T19:02:14.520Z,20.10
2023-05-08T19:04:41.962Z,20.03
2023-05-08T19:07:09.262Z,19.97
2023-05-08T19:09:36.719Z,19.88
2023-05-08T19:12:04.085Z,19.86
2023-05-08T19:14:31.424Z,19.80
2023-05-08T19:16:58.790Z,19.74
2023-05-08T19:19:26.206Z,19.66
2023-05-08T19:21:53.504Z,19.59
2023-05-08T19:24:24.015Z,19.60
2023-05-08T19:26:51.337Z,19.53
2023-05-08T19:29:18.652Z,19.48
2023-05-08T19:31:46.210Z,19.43
2023-05-08T19:34:13.642Z,19.37
2023-05-08T19:36:41.293Z,19.27
2023-05-08T19:39:09.185Z,19.25
2023-05-08T19:41:36.574Z,19.19
2023-05-08T19:44:03.992Z,19.12
2023-05-08T19:46:31.417Z,19.06
2023-05-08T19:48:58.850Z,19.04
2023-05-08T19:51:26.170Z,19.04
2023-05-08T19:53:53.469Z,18.94
2023-05-08T19:56:21.159Z,18.94
2023-05-08T19:58:48.457Z,18.91
2023-05-08T20:01:15.839Z,18.90
2023-05-08T20:03:43.261Z,18.81
2023-05-08T20:06:10.779Z,18.82
2023-05-08T20:08:38.254Z,18.75
2023-05-08T20:11:07.831Z,18.71
2023-05-08T20:13:35.128Z,18.75
2023-05-08T20:16:02.509Z,18.66
2023-05-08T20:18:29.925Z,18.66
2023-05-08T20:20:57.259Z,18.62
2023-05-08T20:23:24.681Z,18.63
2023-05-08T20:25:54.281Z,18.55
2023-05-08T20:28:25.116Z,18.53
2023-05-08T20:30:53.170Z,18.50
2023-05-08T20:33:20.821Z,18.47
2023-05-08T20:35:48.131Z,18.43
2023-05-08T20:38:16.138Z,18.42
2023-05-08T20:40:43.601Z,18.42
2023-05-08T20:43:11.339Z,18.39
2023-05-08T20:45:39.106Z,18.38
2023-05-08T20:48:06.728Z,18.34
2023-05-08T20:50:34.116Z,18.33
2023-05-08T20:53:01.419Z,18.31
2023-05-08T20:55:28.848Z,18.32
2023-05-08T20:57:56.264Z,18.26
2023-05-08T21:00:23.716Z,18.27
2023-05-08T21:02:51.042Z,18.23
2023-05-08T21:05:18.764Z,18.25
2023-05-08T21:07:46.188Z,18.18
2023-05-08T21:10:13.986Z,18.14
2023-05-08T21:12:44.404Z,18.12
2023-05-08T21:15:11.995Z,18.08
2023-05-08T21:17:39.401Z,18.05
2023-05-08T21:20:07.568Z,18.02
2023-05-08T21:22:34.930Z,18.01
2023-05-08T21:25:02.285Z,17.97
2023-05-08T21:27:29.681Z,17.92
2023-05-08T21:29:56.996Z,17.82
2023-05-08T21:32:24.595Z,17.77
2023-05-08T21:34:51.984Z,17.77
2023-05-08T21:37:19.429Z,17.74
2023-05-08T21:39:46.770Z,17.64
2023-05-08T21:42:14.059Z,17.62
2023-05-08T21:44:41.354Z,17.59
2023-05-08T21:47:08.786Z,17.55
2023-05-08T21:49:36.126Z,17.50
2023-05-08T21:52:03.509Z,17.47
2023-05-08T21:54:30.926Z,17.46
2023-05-08T21:56:58.225Z,17.45
2023-05-08T21:59:25.637Z,17.38
2023-05-08T22:01:52.985Z,17.38
2023-05-08T22:04:20.801Z,17.35
2023-05-08T22:06:48.106Z,17.32
2023-05-08T22:09:15.569Z,17.27
2023-05-08T22:11:42.889Z,17.26
2023-05-08T22:14:10.506Z,17.23
2023-05-08T22:16:38.184Z,17.22
2023-05-08T22:19:05.816Z,17.20
2023-05-08T22:21:33.118Z,17.21
2023-05-08T22:24:00.633Z,17.18
2023-05-08T22:26:28.874Z,17.13
2023-05-08T22:28:56.340Z,17.08
2023-05-08T22:31:23.747Z,17.05
2023-05-08T22:33:51.596Z,17.03
2023-05-08T22:36:18.956Z,16.96
2023-05-08T22:38:46.284Z,16.97
2023-05-08T22:41:13.587Z,16.98
2023-05-08T22:43:41.019Z,16.94
2023-05-08T22:46:08.605Z,16.92
2023-05-08T22:48:36.332Z,16.91
2023-05-08T22:51:04.300Z,16.86
2023-05-08T22:53:32.692Z,16.83
2023-05-08T22:56:00.091Z,16.78
2023-05-08T22:58:29.209Z,16.76
2023-05-08T23:00:56.881Z,16.73
2023-05-08T23:03:24.192Z,16.73
2023-05-08T23:05:51.506Z,16.71
2023-05-08T23:08:18.847Z,16.70
2023-05-08T23:10:46.152Z,16.63
2023-05-08T23:13:13.684Z,16.61
2023-05-08T23:15:41.046Z,16.62
2023-05-08T23:18:08.489Z,16.62
2023-05-08T23:20:35.953Z,16.62
2023-05-08T23:23:03.282Z,16.55
2023-05-08T23:25:30.603Z,16.57
2023-05-08T23:27:58.152Z,16.53
2023-05-08T23:30:25.531Z,16.54
2023-05-08T23:32:52.879Z,16.52
2023-05-08T23:35:20.575Z,16.50
2023-05-08T23:37:47.957Z,16.45
2023-05-08T23:40:17.390Z,16.48
2023-05-08T23:42:44.816Z,16.45
2023-05-08T23:45:12.566Z,16.42
2023-05-08T23:47:40.128Z,16.39
2023-05-08T23:50:07.988Z,16.39
2023-05-08T23:52:35.379Z,16.34
2023-05-08T23:55:02.843Z,16.29
2023-05-08T23:57:30.163Z,16.28
2023-05-08T23:59:57.474Z,16.32
